Track паламарчук Петр

Time Latitude Longitude Accuracy (66% radius in meters) Altitude (meters) Speed (km/hour) Bearing (degrees) Battery (%) GPS flag
11:44:02 57.204317 60.119475 3.2160000801086 335 0.77999997138977 49.099998474121 1 1 delete
11:44:00 57.204314 60.119456 3.2160000801086 336 0.72000002861023 61.900001525879 1 1 delete
11:43:53 57.204293 60.119375 3.2160000801086 332 0.63999998569489 52.599998474121 1 1 delete
11:43:51 57.204284 60.119342 3.2160000801086 332 1.3700000047684 54.5 1 1 delete
11:43:48 57.204263 60.119295 3.2160000801086 332 1.3799999952316 39.200000762939 1 1 delete
11:43:44 57.204240 60.119223 4.2880001068115 330 1.3600000143051 37.400001525879 1 1 delete
11:43:41 57.204202 60.119170 4.2880001068115 329 1.3500000238419 21.700000762939 1 1 delete
11:43:38 57.204158 60.119120 5.3600001335144 328 1.3500000238419 33.700000762939 1 1 delete
11:43:35 57.204120 60.119062 4.2880001068115 327 0.70999997854233 0.5 1 1 delete
11:43:31 57.204082 60.119005 4.2880001068115 328 1.3300000429153 21 1 1 delete
11:43:30 57.204069 60.118987 4.2880001068115 328 1.1200000047684 28.200000762939 1 1 delete
11:43:28 57.204042 60.118951 3.2160000801086 327 1.3300000429153 23.39999961853 1 1 delete
11:43:25 57.204001 60.118904 4.2880001068115 326 1.3200000524521 25 1 1 delete
11:43:22 57.203958 60.118867 3.2160000801086 326 1.3200000524521 23.799999237061 1 1 delete
11:43:20 57.203933 60.118837 3.2160000801086 325 1.3200000524521 45.200000762939 1 1 delete
11:43:19 57.203922 60.118817 3.2160000801086 325 1.3200000524521 43.799999237061 1 1 delete
11:43:15 57.203878 60.118757 3.2160000801086 325 1.3200000524521 48.799999237061 1 1 delete
11:43:11 57.203854 60.118675 3.2160000801086 323 1.3300000429153 65 1 1 delete
11:43:10 57.203848 60.118651 3.2160000801086 323 1.3300000429153 71.300003051758 1 1 delete
11:43:07 57.203837 60.118582 3.2160000801086 322 1.3300000429153 88.900001525879 1 1 delete
11:43:03 57.203830 60.118499 3.2160000801086 322 1.2300000190735 103.80000305176 1 1 delete
11:43:00 57.203828 60.118441 3.2160000801086 321 1.3400000333786 121.69999694824 1 1 delete
11:42:58 57.203838 60.118409 3.2160000801086 321 1.3500000238419 161.89999389648 1 1 delete
11:42:54 57.203879 60.118470 3.2160000801086 321 1.3500000238419 173 1 1 delete
11:42:49 57.203923 60.118423 3.2160000801086 322 1.3799999952316 116.59999847412 1 1 delete
11:42:45 57.203924 60.118334 3.2160000801086 320 1.3999999761581 98.699996948242 1 1 delete
11:42:39 57.203944 60.118255 3.2160000801086 319 0.83999997377396 132.19999694824 1 1 delete
11:42:38 57.203951 60.118243 3.2160000801086 319 1.4099999666214 139.5 1 1 delete
11:42:33 57.203987 60.118162 3.2160000801086 319 1.4199999570847 140.30000305176 1 1 delete
11:42:29 57.204018 60.118098 3.2160000801086 319 1.4299999475479 149.10000610352 1 1 delete
11:42:28 57.204027 60.118084 3.2160000801086 319 1.4299999475479 145.69999694824 1 1 delete
11:42:25 57.204051 60.118029 3.2160000801086 319 1.4400000572205 126.80000305176 1 1 delete
11:42:20 57.204088 60.117951 3.2160000801086 318 1.4500000476837 134.69999694824 1 1 delete
11:42:18 57.204098 60.117926 3.2160000801086 318 1.4400000572205 144.19999694824 1 1 delete
11:42:14 57.204122 60.117878 3.2160000801086 316 1.4800000190735 129.39999389648 1 1 delete
11:42:09 57.204155 60.117810 3.2160000801086 316 1.5099999904633 143.39999389648 1 1 delete
11:42:07 57.204173 60.117787 3.2160000801086 316 1.539999961853 156.39999389648 1 1 delete
11:42:05 57.204196 60.117768 3.2160000801086 315 1.5700000524521 155.80000305176 1 1 delete
11:42:02 57.204243 60.117727 3.2160000801086 315 1.5800000429153 156.10000610352 1 1 delete
11:41:59 57.204290 60.117686 3.2160000801086 314 1.5099999904633 148.69999694824 1 1 delete
11:41:57 57.204318 60.117657 3.2160000801086 314 1.5099999904633 143.10000610352 1 1 delete
11:41:56 57.204332 60.117637 3.2160000801086 313 1.5099999904633 130.19999694824 1 1 delete
11:41:53 57.204369 60.117579 3.2160000801086 314 1.5 145.80000305176 1 1 delete
11:41:50 57.204427 60.117550 3.2160000801086 313 1.5099999904633 154.30000305176 1 1 delete
11:41:48 57.204472 60.117533 3.2160000801086 313 1.5099999904633 159.80000305176 1 1 delete
11:41:46 57.204523 60.117518 3.2160000801086 313 1.4900000095367 164 1 1 delete
11:41:44 57.204577 60.117508 3.2160000801086 313 1.4500000476837 165.10000610352 1 1 delete
11:41:42 57.204625 60.117495 3.2160000801086 313 1.4199999570847 164.39999389648 1 1 delete
11:41:40 57.204672 60.117486 3.2160000801086 313 1.4099999666214 167.69999694824 1 1 delete
11:41:38 57.204717 60.117475 3.2160000801086 313 1.3600000143051 163.69999694824 1 1 delete